sensor_id;sensor_type;location;lat;lon;timestamp;temperature;humidity
13892;DHT22;7016;48.172;8.058;2023-08-24T00:01:41;20.40;99.90
13892;DHT22;7016;48.172;8.058;2023-08-24T00:04:07;20.40;99.90
13892;DHT22;7016;48.172;8.058;2023-08-24T00:06:34;20.40;99.90
13892;DHT22;7016;48.172;8.058;2023-08-24T00:08:59;20.40;99.90
13892;DHT22;7016;48.172;8.058;2023-08-24T00:11:25;20.40;99.90
13892;DHT22;7016;48.172;8.058;2023-08-24T00:13:51;22.30;99.90
13892;DHT22;7016;48.172;8.058;2023-08-24T00:16:18;20.30;99.90
13892;DHT22;7016;48.172;8.058;2023-08-24T00:18:44;20.20;99.90
13892;DHT22;7016;48.172;8.058;2023-08-24T00:21:11;20.20;99.90
13892;DHT22;7016;48.172;8.058;2023-08-24T00:23:37;20.30;99.90
13892;DHT22;7016;48.172;8.058;2023-08-24T00:26:04;20.30;99.90
13892;DHT22;7016;48.172;8.058;2023-08-24T00:28:29;20.30;99.90
13892;DHT22;7016;48.172;8.058;2023-08-24T00:30:55;20.30;99.90
13892;DHT22;7016;48.172;8.058;2023-08-24T00:33:21;20.30;99.90
13892;DHT22;7016;48.172;8.058;2023-08-24T00:35:46;20.20;99.90
13892;DHT22;7016;48.172;8.058;2023-08-24T00:38:13;20.20;99.90
13892;DHT22;7016;48.172;8.058;2023-08-24T00:40:43;20.10;99.90
13892;DHT22;7016;48.172;8.058;2023-08-24T00:43:09;20.20;99.90
13892;DHT22;7016;48.172;8.058;2023-08-24T00:45:35;20.10;99.90
13892;DHT22;7016;48.172;8.058;2023-08-24T00:48:02;20.00;99.90
13892;DHT22;7016;48.172;8.058;2023-08-24T00:50:28;20.00;99.90
13892;DHT22;7016;48.172;8.058;2023-08-24T00:52:54;20.00;99.90
13892;DHT22;7016;48.172;8.058;2023-08-24T00:55:21;20.10;99.90
13892;DHT22;7016;48.172;8.058;2023-08-24T00:57:47;20.20;99.90
13892;DHT22;7016;48.172;8.058;2023-08-24T01:00:14;20.10;99.90
13892;DHT22;7016;48.172;8.058;2023-08-24T01:02:40;20.10;99.90
13892;DHT22;7016;48.172;8.058;2023-08-24T01:05:06;20.00;99.90
13892;DHT22;7016;48.172;8.058;2023-08-24T01:07:34;20.00;99.90
13892;DHT22;7016;48.172;8.058;2023-08-24T01:10:01;19.80;99.90
13892;DHT22;7016;48.172;8.058;2023-08-24T01:15:02;19.90;99.90
13892;DHT22;7016;48.172;8.058;2023-08-24T01:17:30;20.00;99.90
13892;DHT22;7016;48.172;8.058;2023-08-24T01:19:58;19.90;99.90
13892;DHT22;7016;48.172;8.058;2023-08-24T01:27:34;19.90;99.90
13892;DHT22;7016;48.172;8.058;2023-08-24T01:30:03;19.90;99.90
13892;DHT22;7016;48.172;8.058;2023-08-24T01:32:36;20.00;99.90
13892;DHT22;7016;48.172;8.058;2023-08-24T01:35:07;20.00;99.90
13892;DHT22;7016;48.172;8.058;2023-08-24T01:37:35;19.90;99.90
13892;DHT22;7016;48.172;8.058;2023-08-24T01:40:15;19.90;99.90
13892;DHT22;7016;48.172;8.058;2023-08-24T01:42:56;19.90;99.90
13892;DHT22;7016;48.172;8.058;2023-08-24T01:45:29;20.00;99.90
13892;DHT22;7016;48.172;8.058;2023-08-24T01:47:55;19.90;99.90
13892;DHT22;7016;48.172;8.058;2023-08-24T01:50:22;19.90;99.90
13892;DHT22;7016;48.172;8.058;2023-08-24T01:52:48;19.90;99.90
13892;DHT22;7016;48.172;8.058;2023-08-24T01:55:15;19.90;99.90
13892;DHT22;7016;48.172;8.058;2023-08-24T01:57:43;20.00;99.90
13892;DHT22;7016;48.172;8.058;2023-08-24T02:00:08;20.00;99.90
13892;DHT22;7016;48.172;8.058;2023-08-24T02:02:35;20.00;99.90
13892;DHT22;7016;48.172;8.058;2023-08-24T02:05:01;20.00;99.90
13892;DHT22;7016;48.172;8.058;2023-08-24T02:07:28;20.00;99.90
13892;DHT22;7016;48.172;8.058;2023-08-24T02:09:53;20.00;99.90
13892;DHT22;7016;48.172;8.058;2023-08-24T02:12:19;19.90;99.90
13892;DHT22;7016;48.172;8.058;2023-08-24T02:14:45;19.90;99.90
13892;DHT22;7016;48.172;8.058;2023-08-24T02:17:10;19.90;99.90
13892;DHT22;7016;48.172;8.058;2023-08-24T02:19:36;20.00;99.90
13892;DHT22;7016;48.172;8.058;2023-08-24T02:22:02;20.00;99.90
13892;DHT22;7016;48.172;8.058;2023-08-24T02:24:28;20.00;99.90
13892;DHT22;7016;48.172;8.058;2023-08-24T02:26:53;20.00;99.90
13892;DHT22;7016;48.172;8.058;2023-08-24T02:29:19;20.10;99.90
13892;DHT22;7016;48.172;8.058;2023-08-24T02:31:44;20.10;99.90
13892;DHT22;7016;48.172;8.058;2023-08-24T02:34:10;20.10;99.90
13892;DHT22;7016;48.172;8.058;2023-08-24T02:36:36;20.10;99.90
13892;DHT22;7016;48.172;8.058;2023-08-24T02:39:02;20.20;99.90
13892;DHT22;7016;48.172;8.058;2023-08-24T02:41:27;20.20;99.90
13892;DHT22;7016;48.172;8.058;2023-08-24T02:43:53;20.20;99.90
13892;DHT22;7016;48.172;8.058;2023-08-24T02:46:21;20.10;99.90
13892;DHT22;7016;48.172;8.058;2023-08-24T02:48:46;20.10;99.90
13892;DHT22;7016;48.172;8.058;2023-08-24T02:51:13;20.10;99.90
13892;DHT22;7016;48.172;8.058;2023-08-24T02:53:39;20.10;99.90
13892;DHT22;7016;48.172;8.058;2023-08-24T02:56:04;20.10;99.90
13892;DHT22;7016;48.172;8.058;2023-08-24T02:58:30;20.10;99.90
13892;DHT22;7016;48.172;8.058;2023-08-24T03:00:57;20.10;99.90
13892;DHT22;7016;48.172;8.058;2023-08-24T03:03:23;20.10;99.90
13892;DHT22;7016;48.172;8.058;2023-08-24T03:06:03;20.20;99.90
13892;DHT22;7016;48.172;8.058;2023-08-24T03:08:30;20.10;99.90
13892;DHT22;7016;48.172;8.058;2023-08-24T03:10:56;20.10;99.90
13892;DHT22;7016;48.172;8.058;2023-08-24T03:13:22;20.20;99.90
13892;DHT22;7016;48.172;8.058;2023-08-24T03:15:48;20.20;99.90
13892;DHT22;7016;48.172;8.058;2023-08-24T03:18:15;20.10;99.90
13892;DHT22;7016;48.172;8.058;2023-08-24T03:20:41;20.10;99.90
13892;DHT22;7016;48.172;8.058;2023-08-24T03:23:07;20.10;99.90
13892;DHT22;7016;48.172;8.058;2023-08-24T03:25:38;20.10;99.90
13892;DHT22;7016;48.172;8.058;2023-08-24T03:28:04;20.00;99.90
13892;DHT22;7016;48.172;8.058;2023-08-24T03:30:30;20.00;99.90
13892;DHT22;7016;48.172;8.058;2023-08-24T03:32:56;19.90;99.90
13892;DHT22;7016;48.172;8.058;2023-08-24T03:35:22;19.90;99.90
13892;DHT22;7016;48.172;8.058;2023-08-24T03:37:48;19.90;99.90
13892;DHT22;7016;48.172;8.058;2023-08-24T03:40:14;19.90;99.90
13892;DHT22;7016;48.172;8.058;2023-08-24T03:42:39;19.90;99.90
13892;DHT22;7016;48.172;8.058;2023-08-24T03:45:06;19.80;99.90
13892;DHT22;7016;48.172;8.058;2023-08-24T03:47:31;19.80;99.90
13892;DHT22;7016;48.172;8.058;2023-08-24T03:49:57;19.80;99.90
13892;DHT22;7016;48.172;8.058;2023-08-24T03:52:23;19.90;99.90
13892;DHT22;7016;48.172;8.058;2023-08-24T03:54:48;19.90;99.90
13892;DHT22;7016;48.172;8.058;2023-08-24T03:57:14;19.90;99.90
13892;DHT22;7016;48.172;8.058;2023-08-24T03:59:41;19.80;99.90
13892;DHT22;7016;48.172;8.058;2023-08-24T04:02:07;19.80;99.90
13892;DHT22;7016;48.172;8.058;2023-08-24T04:04:32;19.90;99.90
13892;DHT22;7016;48.172;8.058;2023-08-24T04:06:58;19.90;99.90
13892;DHT22;7016;48.172;8.058;2023-08-24T04:09:24;19.70;99.90
13892;DHT22;7016;48.172;8.058;2023-08-24T04:11:49;19.80;99.90
13892;DHT22;7016;48.172;8.058;2023-08-24T04:14:15;19.80;99.90
13892;DHT22;7016;48.172;8.058;2023-08-24T04:16:41;19.70;99.90
13892;DHT22;7016;48.172;8.058;2023-08-24T04:19:07;19.70;99.90
13892;DHT22;7016;48.172;8.058;2023-08-24T04:21:34;19.80;99.90
13892;DHT22;7016;48.172;8.058;2023-08-24T04:23:59;19.70;99.90
13892;DHT22;7016;48.172;8.058;2023-08-24T04:26:25;19.80;99.90
13892;DHT22;7016;48.172;8.058;2023-08-24T04:28:51;19.90;99.90
13892;DHT22;7016;48.172;8.058;2023-08-24T04:31:16;19.90;99.90
13892;DHT22;7016;48.172;8.058;2023-08-24T04:33:42;20.00;99.90
13892;DHT22;7016;48.172;8.058;2023-08-24T04:36:08;19.80;99.90
13892;DHT22;7016;48.172;8.058;2023-08-24T04:38:34;19.90;99.90
13892;DHT22;7016;48.172;8.058;2023-08-24T04:40:59;19.90;99.90
13892;DHT22;7016;48.172;8.058;2023-08-24T04:43:25;19.70;99.90
13892;DHT22;7016;48.172;8.058;2023-08-24T04:45:55;19.70;99.90
13892;DHT22;7016;48.172;8.058;2023-08-24T04:48:21;19.80;99.90
13892;DHT22;7016;48.172;8.058;2023-08-24T04:50:47;19.70;99.90
13892;DHT22;7016;48.172;8.058;2023-08-24T04:53:16;19.70;99.90
13892;DHT22;7016;48.172;8.058;2023-08-24T04:55:43;19.80;99.90
13892;DHT22;7016;48.172;8.058;2023-08-24T04:58:09;19.70;99.90
13892;DHT22;7016;48.172;8.058;2023-08-24T05:00:36;19.70;99.90
13892;DHT22;7016;48.172;8.058;2023-08-24T05:03:06;19.70;99.90
13892;DHT22;7016;48.172;8.058;2023-08-24T05:05:33;19.70;99.90
13892;DHT22;7016;48.172;8.058;2023-08-24T05:08:00;19.80;99.90
13892;DHT22;7016;48.172;8.058;2023-08-24T05:10:30;19.80;99.90
13892;DHT22;7016;48.172;8.058;2023-08-24T05:12:56;19.80;99.90
13892;DHT22;7016;48.172;8.058;2023-08-24T05:15:21;19.80;99.90
13892;DHT22;7016;48.172;8.058;2023-08-24T05:17:47;19.90;99.90
13892;DHT22;7016;48.172;8.058;2023-08-24T05:20:13;19.80;99.90
13892;DHT22;7016;48.172;8.058;2023-08-24T05:22:39;19.90;99.90
13892;DHT22;7016;48.172;8.058;2023-08-24T05:25:05;20.00;99.90
13892;DHT22;7016;48.172;8.058;2023-08-24T05:27:32;20.00;99.90
13892;DHT22;7016;48.172;8.058;2023-08-24T05:29:57;20.00;99.90
13892;DHT22;7016;48.172;8.058;2023-08-24T05:32:23;20.00;99.90
13892;DHT22;7016;48.172;8.058;2023-08-24T05:34:49;20.00;99.90
13892;DHT22;7016;48.172;8.058;2023-08-24T05:37:15;20.10;99.90
13892;DHT22;7016;48.172;8.058;2023-08-24T05:39:41;20.10;99.90
13892;DHT22;7016;48.172;8.058;2023-08-24T05:42:08;20.10;99.90
13892;DHT22;7016;48.172;8.058;2023-08-24T05:44:33;20.00;99.90
13892;DHT22;7016;48.172;8.058;2023-08-24T05:46:59;20.10;99.90
13892;DHT22;7016;48.172;8.058;2023-08-24T05:49:25;20.10;99.90
13892;DHT22;7016;48.172;8.058;2023-08-24T05:51:51;20.10;99.90
13892;DHT22;7016;48.172;8.058;2023-08-24T05:54:17;20.20;99.90
13892;DHT22;7016;48.172;8.058;2023-08-24T05:56:46;20.20;99.90
13892;DHT22;7016;48.172;8.058;2023-08-24T05:59:12;20.20;99.90
13892;DHT22;7016;48.172;8.058;2023-08-24T06:01:38;20.30;99.90
13892;DHT22;7016;48.172;8.058;2023-08-24T06:04:08;20.30;99.90
13892;DHT22;7016;48.172;8.058;2023-08-24T06:06:34;20.30;99.90
13892;DHT22;7016;48.172;8.058;2023-08-24T06:09:00;20.40;99.90
13892;DHT22;7016;48.172;8.058;2023-08-24T06:11:26;20.30;99.90
13892;DHT22;7016;48.172;8.058;2023-08-24T06:13:52;20.40;99.90
13892;DHT22;7016;48.172;8.058;2023-08-24T06:16:20;20.50;99.90
13892;DHT22;7016;48.172;8.058;2023-08-24T06:18:45;20.50;99.90
13892;DHT22;7016;48.172;8.058;2023-08-24T06:21:11;20.60;99.90
13892;DHT22;7016;48.172;8.058;2023-08-24T06:23:38;20.60;99.90
13892;DHT22;7016;48.172;8.058;2023-08-24T06:26:04;20.70;99.90
13892;DHT22;7016;48.172;8.058;2023-08-24T06:28:30;20.70;99.90
13892;DHT22;7016;48.172;8.058;2023-08-24T06:30:56;20.70;99.90
13892;DHT22;7016;48.172;8.058;2023-08-24T06:33:33;20.80;99.90
13892;DHT22;7016;48.172;8.058;2023-08-24T06:35:59;20.80;99.90
13892;DHT22;7016;48.172;8.058;2023-08-24T06:38:25;20.90;99.90
13892;DHT22;7016;48.172;8.058;2023-08-24T06:40:51;20.90;99.90
13892;DHT22;7016;48.172;8.058;2023-08-24T06:43:17;20.90;99.90
13892;DHT22;7016;48.172;8.058;2023-08-24T06:45:44;20.90;99.90
13892;DHT22;7016;48.172;8.058;2023-08-24T06:48:10;21.00;99.90
13892;DHT22;7016;48.172;8.058;2023-08-24T06:50:36;20.90;99.90
13892;DHT22;7016;48.172;8.058;2023-08-24T06:53:03;20.90;99.90
13892;DHT22;7016;48.172;8.058;2023-08-24T06:55:29;20.90;99.90
13892;DHT22;7016;48.172;8.058;2023-08-24T06:57:55;21.00;99.90
13892;DHT22;7016;48.172;8.058;2023-08-24T07:00:21;21.00;99.90
13892;DHT22;7016;48.172;8.058;2023-08-24T07:02:47;21.00;99.90
13892;DHT22;7016;48.172;8.058;2023-08-24T07:05:14;21.10;99.90
13892;DHT22;7016;48.172;8.058;2023-08-24T07:07:40;21.10;99.90
13892;DHT22;7016;48.172;8.058;2023-08-24T07:10:09;21.10;99.90
13892;DHT22;7016;48.172;8.058;2023-08-24T07:12:34;21.30;99.90
13892;DHT22;7016;48.172;8.058;2023-08-24T07:15:00;21.40;99.90
13892;DHT22;7016;48.172;8.058;2023-08-24T07:17:26;21.50;99.90
13892;DHT22;7016;48.172;8.058;2023-08-24T07:19:52;21.70;99.90
13892;DHT22;7016;48.172;8.058;2023-08-24T07:22:17;21.80;99.90
13892;DHT22;7016;48.172;8.058;2023-08-24T07:24:43;21.90;99.90
13892;DHT22;7016;48.172;8.058;2023-08-24T07:27:09;21.90;99.90
13892;DHT22;7016;48.172;8.058;2023-08-24T07:29:35;22.00;99.90
13892;DHT22;7016;48.172;8.058;2023-08-24T07:32:00;22.10;99.90
13892;DHT22;7016;48.172;8.058;2023-08-24T07:34:26;22.10;99.90
13892;DHT22;7016;48.172;8.058;2023-08-24T07:36:54;22.20;99.90
13892;DHT22;7016;48.172;8.058;2023-08-24T07:39:19;22.20;99.90
13892;DHT22;7016;48.172;8.058;2023-08-24T07:41:45;22.20;99.90
13892;DHT22;7016;48.172;8.058;2023-08-24T07:44:11;22.30;99.90
13892;DHT22;7016;48.172;8.058;2023-08-24T07:46:39;22.40;99.90
13892;DHT22;7016;48.172;8.058;2023-08-24T07:49:05;22.50;99.90
13892;DHT22;7016;48.172;8.058;2023-08-24T07:51:33;22.50;99.90
13892;DHT22;7016;48.172;8.058;2023-08-24T07:53:59;22.70;99.90
13892;DHT22;7016;48.172;8.058;2023-08-24T07:56:25;22.80;99.90
13892;DHT22;7016;48.172;8.058;2023-08-24T07:58:51;23.00;99.90
13892;DHT22;7016;48.172;8.058;2023-08-24T08:01:16;23.10;99.90
13892;DHT22;7016;48.172;8.058;2023-08-24T08:03:42;23.10;99.90
13892;DHT22;7016;48.172;8.058;2023-08-24T08:06:07;23.10;99.90
13892;DHT22;7016;48.172;8.058;2023-08-24T08:08:33;23.10;99.90
13892;DHT22;7016;48.172;8.058;2023-08-24T08:11:00;23.10;99.90
13892;DHT22;7016;48.172;8.058;2023-08-24T08:13:27;23.30;99.90
13892;DHT22;7016;48.172;8.058;2023-08-24T08:15:53;23.40;99.90
13892;DHT22;7016;48.172;8.058;2023-08-24T08:18:19;23.40;99.90
13892;DHT22;7016;48.172;8.058;2023-08-24T08:20:44;23.40;99.90
13892;DHT22;7016;48.172;8.058;2023-08-24T08:23:10;23.60;99.90
13892;DHT22;7016;48.172;8.058;2023-08-24T08:25:35;23.60;99.90
13892;DHT22;7016;48.172;8.058;2023-08-24T08:28:01;23.70;99.90
13892;DHT22;7016;48.172;8.058;2023-08-24T08:30:27;23.70;99.90
13892;DHT22;7016;48.172;8.058;2023-08-24T08:32:52;23.80;99.90
13892;DHT22;7016;48.172;8.058;2023-08-24T08:35:21;23.80;99.90
13892;DHT22;7016;48.172;8.058;2023-08-24T08:37:47;23.80;99.90
13892;DHT22;7016;48.172;8.058;2023-08-24T08:40:15;23.70;99.90
13892;DHT22;7016;48.172;8.058;2023-08-24T08:42:41;23.80;99.90
13892;DHT22;7016;48.172;8.058;2023-08-24T08:45:09;23.90;99.90
13892;DHT22;7016;48.172;8.058;2023-08-24T08:47:35;24.00;99.90
13892;DHT22;7016;48.172;8.058;2023-08-24T08:50:03;24.20;99.90
13892;DHT22;7016;48.172;8.058;2023-08-24T08:52:29;24.20;99.90
13892;DHT22;7016;48.172;8.058;2023-08-24T08:54:55;24.40;99.90
13892;DHT22;7016;48.172;8.058;2023-08-24T08:57:23;24.60;99.90
13892;DHT22;7016;48.172;8.058;2023-08-24T08:59:52;24.60;99.90
13892;DHT22;7016;48.172;8.058;2023-08-24T09:02:19;24.70;99.90
13892;DHT22;7016;48.172;8.058;2023-08-24T09:04:46;24.70;99.90
13892;DHT22;7016;48.172;8.058;2023-08-24T09:07:16;24.80;99.90
13892;DHT22;7016;48.172;8.058;2023-08-24T09:09:42;24.80;99.90
13892;DHT22;7016;48.172;8.058;2023-08-24T09:12:08;24.90;99.90
13892;DHT22;7016;48.172;8.058;2023-08-24T09:14:34;25.00;99.90
13892;DHT22;7016;48.172;8.058;2023-08-24T09:17:00;25.10;99.90
13892;DHT22;7016;48.172;8.058;2023-08-24T09:19:30;25.20;99.90
13892;DHT22;7016;48.172;8.058;2023-08-24T09:21:57;25.30;99.90
13892;DHT22;7016;48.172;8.058;2023-08-24T09:24:33;25.40;99.90
13892;DHT22;7016;48.172;8.058;2023-08-24T09:27:00;25.40;99.90
13892;DHT22;7016;48.172;8.058;2023-08-24T09:29:26;25.40;99.90
13892;DHT22;7016;48.172;8.058;2023-08-24T09:31:52;25.50;99.90
13892;DHT22;7016;48.172;8.058;2023-08-24T09:34:22;25.70;99.90
13892;DHT22;7016;48.172;8.058;2023-08-24T09:36:52;25.80;99.90
13892;DHT22;7016;48.172;8.058;2023-08-24T09:39:18;25.90;99.90
13892;DHT22;7016;48.172;8.058;2023-08-24T09:41:46;26.00;99.90
13892;DHT22;7016;48.172;8.058;2023-08-24T09:44:16;26.10;99.90
13892;DHT22;7016;48.172;8.058;2023-08-24T09:46:42;26.20;99.90
13892;DHT22;7016;48.172;8.058;2023-08-24T09:49:10;26.40;99.90
13892;DHT22;7016;48.172;8.058;2023-08-24T09:51:38;26.30;99.90
13892;DHT22;7016;48.172;8.058;2023-08-24T09:54:06;26.30;99.90
13892;DHT22;7016;48.172;8.058;2023-08-24T09:56:39;26.30;99.90
13892;DHT22;7016;48.172;8.058;2023-08-24T09:59:16;26.40;99.90
13892;DHT22;7016;48.172;8.058;2023-08-24T10:01:48;26.40;99.90
13892;DHT22;7016;48.172;8.058;2023-08-24T10:04:17;26.50;99.90
13892;DHT22;7016;48.172;8.058;2023-08-24T10:06:46;26.60;99.90
13892;DHT22;7016;48.172;8.058;2023-08-24T10:09:32;26.60;99.90
13892;DHT22;7016;48.172;8.058;2023-08-24T10:12:02;26.70;99.90
13892;DHT22;7016;48.172;8.058;2023-08-24T10:17:39;26.90;99.90
13892;DHT22;7016;48.172;8.058;2023-08-24T10:20:06;27.00;99.90
13892;DHT22;7016;48.172;8.058;2023-08-24T10:22:35;27.10;99.90
13892;DHT22;7016;48.172;8.058;2023-08-24T10:25:02;27.20;99.90
13892;DHT22;7016;48.172;8.058;2023-08-24T10:27:29;27.30;99.90
13892;DHT22;7016;48.172;8.058;2023-08-24T10:29:55;27.30;99.90
13892;DHT22;7016;48.172;8.058;2023-08-24T10:32:22;27.30;99.90
13892;DHT22;7016;48.172;8.058;2023-08-24T10:34:50;27.30;99.90
13892;DHT22;7016;48.172;8.058;2023-08-24T10:37:16;27.40;99.90
13892;DHT22;7016;48.172;8.058;2023-08-24T10:39:45;27.60;99.90
13892;DHT22;7016;48.172;8.058;2023-08-24T10:42:12;27.70;99.90
13892;DHT22;7016;48.172;8.058;2023-08-24T10:44:39;27.60;99.90
13892;DHT22;7016;48.172;8.058;2023-08-24T10:47:16;27.60;99.90
13892;DHT22;7016;48.172;8.058;2023-08-24T10:49:45;27.70;99.90
13892;DHT22;7016;48.172;8.058;2023-08-24T10:52:32;27.70;99.90
13892;DHT22;7016;48.172;8.058;2023-08-24T10:55:01;27.80;99.90
13892;DHT22;7016;48.172;8.058;2023-08-24T10:57:34;27.90;99.90
13892;DHT22;7016;48.172;8.058;2023-08-24T11:00:11;28.00;99.90
13892;DHT22;7016;48.172;8.058;2023-08-24T11:02:50;28.00;99.90
13892;DHT22;7016;48.172;8.058;2023-08-24T11:10:19;28.30;99.90
13892;DHT22;7016;48.172;8.058;2023-08-24T11:15:41;28.50;99.90
13892;DHT22;7016;48.172;8.058;2023-08-24T11:20:46;28.60;99.90
13892;DHT22;7016;48.172;8.058;2023-08-24T11:23:12;28.70;99.90
13892;DHT22;7016;48.172;8.058;2023-08-24T11:25:39;28.70;99.90
13892;DHT22;7016;48.172;8.058;2023-08-24T11:28:04;28.70;99.90
13892;DHT22;7016;48.172;8.058;2023-08-24T11:30:34;28.70;99.90
13892;DHT22;7016;48.172;8.058;2023-08-24T11:33:00;28.80;99.90
13892;DHT22;7016;48.172;8.058;2023-08-24T11:35:26;28.70;99.90
13892;DHT22;7016;48.172;8.058;2023-08-24T11:37:56;28.80;99.90
13892;DHT22;7016;48.172;8.058;2023-08-24T11:40:23;28.80;99.90
13892;DHT22;7016;48.172;8.058;2023-08-24T11:42:55;28.80;99.90
13892;DHT22;7016;48.172;8.058;2023-08-24T11:45:21;28.90;99.90
13892;DHT22;7016;48.172;8.058;2023-08-24T11:47:48;29.00;99.90
13892;DHT22;7016;48.172;8.058;2023-08-24T11:50:14;29.00;99.90
13892;DHT22;7016;48.172;8.058;2023-08-24T11:52:41;29.00;99.90
13892;DHT22;7016;48.172;8.058;2023-08-24T11:55:06;29.10;99.90
13892;DHT22;7016;48.172;8.058;2023-08-24T11:57:34;29.10;99.90
13892;DHT22;7016;48.172;8.058;2023-08-24T12:00:01;29.20;99.90
13892;DHT22;7016;48.172;8.058;2023-08-24T12:02:27;29.20;99.90
13892;DHT22;7016;48.172;8.058;2023-08-24T12:04:53;29.10;99.90
13892;DHT22;7016;48.172;8.058;2023-08-24T12:07:20;29.10;99.90
13892;DHT22;7016;48.172;8.058;2023-08-24T12:09:46;29.10;99.90
13892;DHT22;7016;48.172;8.058;2023-08-24T12:12:16;29.20;99.90
13892;DHT22;7016;48.172;8.058;2023-08-24T12:14:43;29.40;99.90
13892;DHT22;7016;48.172;8.058;2023-08-24T12:17:10;29.40;99.90
13892;DHT22;7016;48.172;8.058;2023-08-24T12:19:36;29.30;99.90
13892;DHT22;7016;48.172;8.058;2023-08-24T12:22:01;29.30;99.90
13892;DHT22;7016;48.172;8.058;2023-08-24T12:24:28;29.30;99.90
13892;DHT22;7016;48.172;8.058;2023-08-24T12:26:57;29.30;99.90
13892;DHT22;7016;48.172;8.058;2023-08-24T12:29:27;29.30;99.90
13892;DHT22;7016;48.172;8.058;2023-08-24T12:31:57;29.20;99.90
13892;DHT22;7016;48.172;8.058;2023-08-24T12:34:23;29.10;99.90
13892;DHT22;7016;48.172;8.058;2023-08-24T12:36:49;29.10;99.90
13892;DHT22;7016;48.172;8.058;2023-08-24T12:39:14;29.10;99.90
13892;DHT22;7016;48.172;8.058;2023-08-24T12:41:43;29.10;99.90
13892;DHT22;7016;48.172;8.058;2023-08-24T12:44:09;29.20;99.90
13892;DHT22;7016;48.172;8.058;2023-08-24T12:46:34;29.10;99.90
13892;DHT22;7016;48.172;8.058;2023-08-24T12:49:03;29.10;99.90
13892;DHT22;7016;48.172;8.058;2023-08-24T12:51:29;29.10;99.90
13892;DHT22;7016;48.172;8.058;2023-08-24T12:53:55;29.10;99.90
13892;DHT22;7016;48.172;8.058;2023-08-24T12:56:20;29.10;99.90
13892;DHT22;7016;48.172;8.058;2023-08-24T12:58:46;29.20;99.90
13892;DHT22;7016;48.172;8.058;2023-08-24T13:01:12;29.20;99.90
13892;DHT22;7016;48.172;8.058;2023-08-24T13:03:37;29.30;99.90
13892;DHT22;7016;48.172;8.058;2023-08-24T13:06:05;29.30;99.90
13892;DHT22;7016;48.172;8.058;2023-08-24T13:08:31;29.50;99.90
13892;DHT22;7016;48.172;8.058;2023-08-24T13:10:57;29.60;99.90
13892;DHT22;7016;48.172;8.058;2023-08-24T13:13:22;29.80;99.90
13892;DHT22;7016;48.172;8.058;2023-08-24T13:15:49;29.80;99.90
13892;DHT22;7016;48.172;8.058;2023-08-24T13:18:16;29.90;99.90
13892;DHT22;7016;48.172;8.058;2023-08-24T13:20:42;29.90;99.90
13892;DHT22;7016;48.172;8.058;2023-08-24T13:23:08;30.00;99.90
13892;DHT22;7016;48.172;8.058;2023-08-24T13:25:33;30.10;99.90
13892;DHT22;7016;48.172;8.058;2023-08-24T13:27:59;30.10;99.90
13892;DHT22;7016;48.172;8.058;2023-08-24T13:30:25;30.10;99.90
13892;DHT22;7016;48.172;8.058;2023-08-24T13:32:51;30.20;99.90
13892;DHT22;7016;48.172;8.058;2023-08-24T13:35:16;30.20;99.90
13892;DHT22;7016;48.172;8.058;2023-08-24T13:37:42;30.20;99.90
13892;DHT22;7016;48.172;8.058;2023-08-24T13:40:08;30.20;99.90
13892;DHT22;7016;48.172;8.058;2023-08-24T13:42:34;30.20;99.90
13892;DHT22;7016;48.172;8.058;2023-08-24T13:45:00;30.30;99.90
13892;DHT22;7016;48.172;8.058;2023-08-24T13:47:25;30.30;99.90
13892;DHT22;7016;48.172;8.058;2023-08-24T13:49:51;30.50;99.90
13892;DHT22;7016;48.172;8.058;2023-08-24T13:52:17;30.40;99.90
13892;DHT22;7016;48.172;8.058;2023-08-24T13:54:44;30.40;99.90
13892;DHT22;7016;48.172;8.058;2023-08-24T13:57:10;30.30;99.90
13892;DHT22;7016;48.172;8.058;2023-08-24T13:59:36;30.30;99.90
13892;DHT22;7016;48.172;8.058;2023-08-24T14:02:02;30.40;99.90
13892;DHT22;7016;48.172;8.058;2023-08-24T14:04:29;30.40;99.90
13892;DHT22;7016;48.172;8.058;2023-08-24T14:06:54;30.40;99.90
13892;DHT22;7016;48.172;8.058;2023-08-24T14:09:20;30.40;99.90
13892;DHT22;7016;48.172;8.058;2023-08-24T14:11:46;30.50;99.90
13892;DHT22;7016;48.172;8.058;2023-08-24T14:14:13;30.50;99.90
13892;DHT22;7016;48.172;8.058;2023-08-24T14:16:39;30.60;99.90
13892;DHT22;7016;48.172;8.058;2023-08-24T14:19:04;30.70;99.90
13892;DHT22;7016;48.172;8.058;2023-08-24T14:21:30;30.70;99.90
13892;DHT22;7016;48.172;8.058;2023-08-24T14:23:56;30.70;99.90
13892;DHT22;7016;48.172;8.058;2023-08-24T14:26:22;30.70;99.90
13892;DHT22;7016;48.172;8.058;2023-08-24T14:28:54;30.70;99.90
13892;DHT22;7016;48.172;8.058;2023-08-24T14:31:29;30.70;99.90
13892;DHT22;7016;48.172;8.058;2023-08-24T14:33:56;30.70;99.90
13892;DHT22;7016;48.172;8.058;2023-08-24T14:36:23;30.70;99.90
13892;DHT22;7016;48.172;8.058;2023-08-24T14:38:49;30.80;99.90
13892;DHT22;7016;48.172;8.058;2023-08-24T14:41:17;30.80;99.90
13892;DHT22;7016;48.172;8.058;2023-08-24T14:43:43;30.80;99.90
13892;DHT22;7016;48.172;8.058;2023-08-24T14:46:09;30.80;99.90
13892;DHT22;7016;48.172;8.058;2023-08-24T14:48:34;30.80;99.90
13892;DHT22;7016;48.172;8.058;2023-08-24T14:51:01;30.80;99.90
13892;DHT22;7016;48.172;8.058;2023-08-24T14:53:27;30.70;99.90
13892;DHT22;7016;48.172;8.058;2023-08-24T14:55:55;30.70;99.90
13892;DHT22;7016;48.172;8.058;2023-08-24T14:58:21;30.70;99.90
13892;DHT22;7016;48.172;8.058;2023-08-24T15:00:51;30.70;99.90
13892;DHT22;7016;48.172;8.058;2023-08-24T15:03:18;30.60;99.90
13892;DHT22;7016;48.172;8.058;2023-08-24T15:05:55;30.60;99.90
13892;DHT22;7016;48.172;8.058;2023-08-24T15:08:21;30.60;99.90
13892;DHT22;7016;48.172;8.058;2023-08-24T15:10:48;30.60;99.90
13892;DHT22;7016;48.172;8.058;2023-08-24T15:13:14;30.60;99.90
13892;DHT22;7016;48.172;8.058;2023-08-24T15:15:41;30.50;99.90
13892;DHT22;7016;48.172;8.058;2023-08-24T15:18:07;30.20;99.90
13892;DHT22;7016;48.172;8.058;2023-08-24T15:20:33;30.20;99.90
13892;DHT22;7016;48.172;8.058;2023-08-24T15:22:59;30.10;99.90
13892;DHT22;7016;48.172;8.058;2023-08-24T15:25:25;30.00;99.90
13892;DHT22;7016;48.172;8.058;2023-08-24T15:27:51;30.00;99.90
13892;DHT22;7016;48.172;8.058;2023-08-24T15:30:17;29.80;99.90
13892;DHT22;7016;48.172;8.058;2023-08-24T15:32:43;29.80;99.90
13892;DHT22;7016;48.172;8.058;2023-08-24T15:35:09;29.80;99.90
13892;DHT22;7016;48.172;8.058;2023-08-24T15:37:34;29.70;99.90
13892;DHT22;7016;48.172;8.058;2023-08-24T15:40:00;29.70;99.90
13892;DHT22;7016;48.172;8.058;2023-08-24T15:42:26;29.60;99.90
13892;DHT22;7016;48.172;8.058;2023-08-24T15:44:52;29.60;99.90
13892;DHT22;7016;48.172;8.058;2023-08-24T15:47:18;29.60;99.90
13892;DHT22;7016;48.172;8.058;2023-08-24T15:49:44;29.50;99.90
13892;DHT22;7016;48.172;8.058;2023-08-24T15:52:10;29.50;99.90
13892;DHT22;7016;48.172;8.058;2023-08-24T15:54:35;29.50;99.90
13892;DHT22;7016;48.172;8.058;2023-08-24T15:57:01;29.40;99.90
13892;DHT22;7016;48.172;8.058;2023-08-24T15:59:27;29.40;99.90
13892;DHT22;7016;48.172;8.058;2023-08-24T16:01:52;29.30;99.90
13892;DHT22;7016;48.172;8.058;2023-08-24T16:04:18;29.30;99.90